Station Historical Data
Daily Summary for April 10, 2012 Units:  English    Metric   Both
« Previous Day
Next Day »
Daily Weekly Monthly Yearly Custom
  High: Low: Average:
Temperature: 71.2 °F 48.4 °F 58.6 °F
Dew Point: 52.5 °F 34.2 °F 43.2 °F
Humidity: 87% 30% 59%
Wind Speed: 14.0mph 0.0mph 2.7mph
Wind Gust: 19.0mph - -
Wind- - WNW
Pressure: 30.07 in 30.00 in -
Precipitation: 0.00 in    
Historical Graphs
 
 
Tabular Data for April 10, 2012
Time Temperature Dew Point Pressure Wind Wind Speed Wind Gust Humidity Rainfall Rate (Hourly) Conditions
00:00 51.3 °F 44.3 °F 30.06 in Calm     77% 0.00 in
00:05 51.7 °F 43.7 °F 30.06 in Calm     74% 0.00 in
00:06 51.7 °F 43.3 °F 30.06 in Calm     73% 0.00 in
00:11 51.4 °F 43.8 °F 30.06 in Calm     75% 0.00 in
00:16 52.1 °F 44.1 °F 30.06 in Calm     74% 0.00 in
00:21 52.9 °F 44.1 °F 30.06 in Calm     72% 0.00 in
00:26 53.1 °F 43.2 °F 30.06 in Calm     69% 0.00 in
00:31 52.7 °F 42.8 °F 30.06 in Calm     69% 0.00 in
00:36 52.1 °F 43.0 °F 30.06 in Calm     71% 0.00 in
00:41 51.8 °F 43.4 °F 30.06 in Calm     73% 0.00 in
00:46 51.7 °F 43.7 °F 30.06 in Calm     74% 0.00 in
00:51 52.0 °F 43.6 °F 30.06 in Calm     73% 0.00 in
00:56 52.2 °F 43.8 °F 30.06 in Calm     73% 0.00 in
01:01 52.2 °F 43.5 °F 30.06 in Calm     72% 0.00 in
01:06 52.0 °F 43.3 °F 30.06 in Calm     72% 0.00 in
01:11 51.5 °F 43.1 °F 30.06 in Calm     73% 0.00 in
01:16 51.7 °F 43.3 °F 30.06 in Calm     73% 0.00 in
01:22 52.1 °F 43.0 °F 30.05 in Calm     71% 0.00 in
01:27 53.1 °F 44.0 °F 30.05 in Calm   1.0 mph 71% 0.00 in
01:32 53.6 °F 43.7 °F 30.05 in Calm     69% 0.00 in
01:37 53.3 °F 43.4 °F 30.05 in Calm     69% 0.00 in
01:42 53.0 °F 43.1 °F 30.05 in Calm     69% 0.00 in
01:47 52.9 °F 43.4 °F 30.05 in Calm     70% 0.00 in
01:52 52.4 °F 43.7 °F 30.05 in Calm     72% 0.00 in
01:57 51.8 °F 43.4 °F 30.05 in Calm     73% 0.00 in
02:02 51.3 °F 43.0 °F 30.05 in Calm     73% 0.00 in
02:07 50.8 °F 43.2 °F 30.05 in Calm     75% 0.00 in
02:12 50.3 °F 42.7 °F 30.05 in Calm     75% 0.00 in
02:17 50.1 °F 42.5 °F 30.05 in Calm     75% 0.00 in
02:22 49.5 °F 42.3 °F 30.05 in Calm     76% 0.00 in
02:27 48.9 °F 42.3 °F 30.05 in Calm     78% 0.00 in
02:32 48.8 °F 42.3 °F 30.05 in Calm     78% 0.00 in
02:37 48.4 °F 41.9 °F 30.05 in Calm     78% 0.00 in
02:42 48.5 °F 42.6 °F 30.05 in Calm     80% 0.00 in
02:47 49.0 °F 42.8 °F 30.05 in Calm     79% 0.00 in
02:52 49.1 °F 42.9 °F 30.05 in Calm     79% 0.00 in
02:57 49.8 °F 43.2 °F 30.05 in Calm     78% 0.00 in
03:02 50.9 °F 43.6 °F 30.04 in Calm     76% 0.00 in
03:08 51.7 °F 43.7 °F 30.04 in Calm     74% 0.00 in
03:13 52.2 °F 43.5 °F 30.04 in Calm     72% 0.00 in
03:18 52.2 °F 43.1 °F 30.04 in Calm     71% 0.00 in
03:23 51.8 °F 42.7 °F 30.04 in Calm     71% 0.00 in
03:28 51.4 °F 42.7 °F 30.04 in Calm     72% 0.00 in
03:33 51.2 °F 42.9 °F 30.03 in Calm     73% 0.00 in
03:38 50.8 °F 42.5 °F 30.03 in Calm     73% 0.00 in
03:43 50.2 °F 42.2 °F 30.03 in Calm     74% 0.00 in
03:48 49.9 °F 42.3 °F 30.03 in Calm     75% 0.00 in
03:53 49.6 °F 42.4 °F 30.03 in Calm     76% 0.00 in
03:58 49.9 °F 42.7 °F 30.03 in Calm     76% 0.00 in
04:03 50.4 °F 42.8 °F 30.03 in Calm     75% 0.00 in
04:08 50.5 °F 42.9 °F 30.03 in Calm     75% 0.00 in
04:13 50.3 °F 43.0 °F 30.03 in NW 1.0 mph 1.0 mph 76% 0.00 in
04:18 50.1 °F 43.2 °F 30.02 in Calm   1.0 mph 77% 0.00 in
04:23 50.4 °F 43.5 °F 30.02 in Calm   1.0 mph 77% 0.00 in
04:28 50.6 °F 43.0 °F 30.02 in Calm     75% 0.00 in
04:33 50.3 °F 43.0 °F 30.02 in Calm     76% 0.00 in
04:38 50.1 °F 43.2 °F 30.02 in Calm     77% 0.00 in
04:43 49.8 °F 42.9 °F 30.02 in Calm     77% 0.00 in
04:48 49.7 °F 43.1 °F 30.02 in Calm     78% 0.00 in
04:54 50.1 °F 43.2 °F 30.01 in Calm     77% 0.00 in
04:58 50.3 °F 43.0 °F 30.01 in Calm   1.0 mph 76% 0.00 in
05:04 50.7 °F 43.4 °F 30.01 in SSE 1.0 mph 2.0 mph 76% 0.00 in
05:09 51.0 °F 43.0 °F 30.01 in Calm   1.0 mph 74% 0.00 in
05:14 51.3 °F 43.3 °F 30.01 in Calm     74% 0.00 in
05:19 51.0 °F 43.4 °F 30.01 in Calm     75% 0.00 in
05:24 50.7 °F 43.8 °F 30.02 in Calm   1.0 mph 77% 0.00 in
05:29 50.4 °F 43.8 °F 30.02 in Calm     78% 0.00 in
05:34 50.3 °F 44.4 °F 30.01 in Calm   2.0 mph 80% 0.00 in
05:39 50.3 °F 44.0 °F 30.01 in Calm   1.0 mph 79% 0.00 in
05:44 49.9 °F 44.0 °F 30.01 in Calm     80% 0.00 in
05:49 49.9 °F 44.3 °F 30.01 in SW 1.0 mph 1.0 mph 81% 0.00 in
05:54 49.9 °F 44.3 °F 30.01 in Calm   1.0 mph 81% 0.00 in
05:59 49.9 °F 44.3 °F 30.01 in SW 1.0 mph 1.0 mph 81% 0.00 in
06:04 49.8 °F 44.2 °F 30.01 in Calm   1.0 mph 81% 0.00 in
06:09 49.6 °F 44.0 °F 30.02 in Calm   1.0 mph 81% 0.00 in
06:15 49.7 °F 43.8 °F 30.02 in Calm   1.0 mph 80% 0.00 in
06:19 49.8 °F 43.9 °F 30.02 in SW 1.0 mph 1.0 mph 80% 0.00 in
06:25 49.8 °F 43.9 °F 30.02 in WSW 1.0 mph 2.0 mph 80% 0.00 in
06:30 49.9 °F 44.0 °F 30.02 in SW 1.0 mph 1.0 mph 80% 0.00 in
06:35 50.0 °F 44.4 °F 30.02 in SW 1.0 mph 2.0 mph 81% 0.00 in
06:40 49.8 °F 44.2 °F 30.02 in WSW 1.0 mph 2.0 mph 81% 0.00 in
06:45 49.9 °F 44.3 °F 30.02 in WSW 1.0 mph 2.0 mph 81% 0.00 in
06:50 50.0 °F 44.4 °F 30.02 in SW 1.0 mph 2.0 mph 81% 0.00 in
06:55 50.0 °F 44.7 °F 30.02 in SW 1.0 mph 1.0 mph 82% 0.00 in
07:00 50.0 °F 44.7 °F 30.02 in SW 1.0 mph 2.0 mph 82% 0.00 in
07:05 50.0 °F 44.7 °F 30.02 in Calm   1.0 mph 82% 0.00 in
07:10 49.9 °F 44.6 °F 30.02 in Calm   1.0 mph 82% 0.00 in
07:15 49.7 °F 44.4 °F 30.02 in Calm   1.0 mph 82% 0.00 in
07:20 49.5 °F 44.2 °F 30.02 in Calm     82% 0.00 in
07:25 49.1 °F 44.5 °F 30.03 in Calm     84% 0.00 in
07:30 49.0 °F 44.7 °F 30.03 in Calm     85% 0.00 in
07:35 49.0 °F 45.0 °F 30.03 in Calm     86% 0.00 in
07:40 49.1 °F 45.1 °F 30.03 in Calm     86% 0.00 in
07:45 48.9 °F 44.9 °F 30.03 in Calm     86% 0.00 in
07:50 49.2 °F 45.2 °F 30.04 in SW 1.0 mph 1.0 mph 86% 0.00 in
07:55 49.5 °F 45.5 °F 30.03 in Calm     86% 0.00 in
08:00 49.8 °F 46.1 °F 30.04 in Calm     87% 0.00 in
08:05 50.2 °F 46.2 °F 30.04 in Calm   1.0 mph 86% 0.00 in
08:06 50.3 °F 46.3 °F 30.04 in Calm   1.0 mph 86% 0.00 in
08:11 50.8 °F 45.8 °F 30.03 in Calm   1.0 mph 83% 0.00 in
08:16 51.4 °F 46.1 °F 30.04 in Calm   1.0 mph 82% 0.00 in
08:21 52.0 °F 46.7 °F 30.04 in SSW 1.0 mph 1.0 mph 82% 0.00 in
08:26 52.5 °F 47.2 °F 30.04 in Calm   1.0 mph 82% 0.00 in
08:31 53.1 °F 48.1 °F 30.04 in Calm   1.0 mph 83% 0.00 in
08:36 53.5 °F 48.2 °F 30.05 in WSW 1.0 mph 3.0 mph 82% 0.00 in
08:41 53.8 °F 48.1 °F 30.05 in WSW 1.0 mph 2.0 mph 81% 0.00 in
08:46 54.2 °F 48.2 °F 30.05 in WSW 1.0 mph 2.0 mph 80% 0.00 in
08:51 54.7 °F 48.3 °F 30.05 in WSW 1.0 mph 3.0 mph 79% 0.00 in
08:57 55.1 °F 48.7 °F 30.05 in WSW 2.0 mph 3.0 mph 79% 0.00 in
09:02 55.6 °F 49.5 °F 30.05 in West 1.0 mph 3.0 mph 80% 0.00 in
09:07 56.1 °F 49.0 °F 30.05 in West 3.0 mph 4.0 mph 77% 0.00 in
09:12 56.2 °F 49.4 °F 30.05 in WSW 3.0 mph 4.0 mph 78% 0.00 in
09:17 56.4 °F 50.0 °F 30.06 in West 2.0 mph 3.0 mph 79% 0.00 in
09:22 56.8 °F 50.4 °F 30.05 in WSW 3.0 mph 3.0 mph 79% 0.00 in
09:27 57.1 °F 50.3 °F 30.05 in WSW 2.0 mph 4.0 mph 78% 0.00 in
09:32 57.2 °F 50.4 °F 30.05 in WNW 1.0 mph 4.0 mph 78% 0.00 in
09:37 58.0 °F 51.9 °F 30.06 in WNW 4.0 mph 4.0 mph 80% 0.00 in
09:42 58.5 °F 51.3 °F 30.06 in NW 3.0 mph 6.0 mph 77% 0.00 in
09:48 59.0 °F 51.1 °F 30.06 in WNW 7.0 mph 9.0 mph 75% 0.00 in
09:53 59.5 °F 50.8 °F 30.06 in WNW 6.0 mph 8.0 mph 73% 0.00 in
09:58 59.5 °F 50.5 °F 30.06 in WNW 5.0 mph 8.0 mph 72% 0.00 in
10:04 59.5 °F 50.8 °F 30.06 in NW 2.0 mph 6.0 mph 73% 0.00 in
10:09 59.6 °F 51.3 °F 30.06 in WNW 4.0 mph 5.0 mph 74% 0.00 in
10:15 59.7 °F 51.0 °F 30.06 in WNW 2.0 mph 6.0 mph 73% 0.00 in
10:20 59.9 °F 51.2 °F 30.06 in NW 2.0 mph 6.0 mph 73% 0.00 in
10:25 60.2 °F 50.4 °F 30.06 in NW 3.0 mph 8.0 mph 70% 0.00 in
10:30 60.8 °F 51.7 °F 30.06 in WNW 5.0 mph 5.0 mph 72% 0.00 in
10:35 61.4 °F 51.9 °F 30.06 in NW 4.0 mph 4.0 mph 71% 0.00 in
10:40 62.0 °F 52.5 °F 30.06 in NW 4.0 mph 8.0 mph 71% 0.00 in
10:45 62.2 °F 51.1 °F 30.06 in NW 5.0 mph 8.0 mph 67% 0.00 in
10:50 62.4 °F 51.3 °F 30.06 in WNW 4.0 mph 7.0 mph 67% 0.00 in
10:55 62.4 °F 50.9 °F 30.06 in NW 3.0 mph 7.0 mph 66% 0.00 in
11:00 62.9 °F 51.0 °F 30.06 in NW 4.0 mph 7.0 mph 65% 0.00 in
11:05 63.2 °F 50.8 °F 30.07 in NNW 6.0 mph 7.0 mph 64% 0.00 in
11:10 63.0 °F 51.5 °F 30.07 in WNW 3.0 mph 6.0 mph 66% 0.00 in
11:15 62.9 °F 49.7 °F 30.07 in NW 3.0 mph 6.0 mph 62% 0.00 in
11:20 63.1 °F 50.3 °F 30.07 in NW 3.0 mph 5.0 mph 63% 0.00 in
11:25 63.3 °F 50.5 °F 30.06 in North 3.0 mph 5.0 mph 63% 0.00 in
11:30 63.8 °F 51.0 °F 30.06 in NW 3.0 mph 4.0 mph 63% 0.00 in
11:35 64.1 °F 50.0 °F 30.06 in Calm   3.0 mph 60% 0.00 in
11:40 64.3 °F 51.0 °F 30.06 in West 2.0 mph 2.0 mph 62% 0.00 in
11:46 64.6 °F 50.9 °F 30.06 in WNW 3.0 mph 3.0 mph 61% 0.00 in
11:51 65.1 °F 50.9 °F 30.06 in Calm   2.0 mph 60% 0.00 in
11:56 65.2 °F 50.5 °F 30.06 in NNW 3.0 mph 4.0 mph 59% 0.00 in
12:01 65.3 °F 49.7 °F 30.06 in NW 2.0 mph 4.0 mph 57% 0.00 in
12:06 65.5 °F 50.8 °F 30.07 in WNW 1.0 mph 3.0 mph 59% 0.00 in
12:11 65.7 °F 49.1 °F 30.07 in NNW 7.0 mph 7.0 mph 55% 0.00 in
12:16 65.6 °F 49.0 °F 30.06 in NW 3.0 mph 6.0 mph 55% 0.00 in
12:21 65.6 °F 50.0 °F 30.07 in NNW 3.0 mph 4.0 mph 57% 0.00 in
12:27 65.5 °F 48.9 °F 30.06 in WNW 3.0 mph 6.0 mph 55% 0.00 in
12:34 65.4 °F 48.3 °F 30.06 in NNW 3.0 mph 3.0 mph 54% 0.00 in
12:39 65.5 °F 46.9 °F 30.06 in West 5.0 mph 5.0 mph 51% 0.00 in
12:44 65.6 °F 47.5 °F 30.06 in WNW 2.0 mph 6.0 mph 52% 0.00 in
12:49 66.0 °F 49.9 °F 30.06 in NNW 4.0 mph 4.0 mph 56% 0.00 in
12:54 66.1 °F 48.0 °F 30.06 in North 2.0 mph 3.0 mph 52% 0.00 in
12:59 66.4 °F 48.3 °F 30.06 in NW 2.0 mph 2.0 mph 52% 0.00 in
13:04 66.4 °F 45.0 °F 30.06 in WNW 2.0 mph 7.0 mph 46% 0.00 in
13:09 66.6 °F 46.3 °F 30.06 in NW 3.0 mph 6.0 mph 48% 0.00 in
13:14 66.7 °F 44.7 °F 30.06 in WNW 3.0 mph 5.0 mph 45% 0.00 in
13:19 66.7 °F 44.7 °F 30.06 in WNW 4.0 mph 5.0 mph 45% 0.00 in
13:24 66.4 °F 45.0 °F 30.06 in NW 4.0 mph 6.0 mph 46% 0.00 in
13:29 66.2 °F 46.0 °F 30.06 in NNW 4.0 mph 4.0 mph 48% 0.00 in
13:34 66.0 °F 46.8 °F 30.06 in NNW 1.0 mph 4.0 mph 50% 0.00 in
13:39 65.9 °F 46.8 °F 30.06 in West 2.0 mph 2.0 mph 50% 0.00 in
13:44 66.2 °F 47.0 °F 30.05 in NW 1.0 mph 1.0 mph 50% 0.00 in
13:50 66.2 °F 48.1 °F 30.05 in Calm   1.0 mph 52% 0.00 in
13:55 66.7 °F 49.5 °F 30.05 in NW 4.0 mph 4.0 mph 54% 0.00 in
14:00 67.4 °F 49.7 °F 30.05 in NW 6.0 mph 6.0 mph 53% 0.00 in
14:05 68.4 °F 48.0 °F 30.05 in NNE 6.0 mph 8.0 mph 48% 0.00 in
14:11 68.5 °F 48.1 °F 30.05 in West 6.0 mph 6.0 mph 48% 0.00 in
14:16 68.7 °F 47.1 °F 30.05 in NNW 4.0 mph 6.0 mph 46% 0.00 in
14:21 68.5 °F 45.1 °F 30.05 in WNW 5.0 mph 7.0 mph 43% 0.00 in
14:26 68.9 °F 47.3 °F 30.04 in NNW 4.0 mph 5.0 mph 46% 0.00 in
14:32 69.2 °F 43.9 °F 30.04 in NNW 7.0 mph 12.0 mph 40% 0.00 in
14:37 69.1 °F 43.1 °F 30.04 in NW 2.0 mph 8.0 mph 39% 0.00 in
14:42 69.1 °F 44.4 °F 30.04 in North 6.0 mph 9.0 mph 41% 0.00 in
14:47 68.7 °F 42.1 °F 30.04 in NNW 5.0 mph 11.0 mph 38% 0.00 in
14:53 69.7 °F 45.6 °F 30.04 in WNW 4.0 mph 9.0 mph 42% 0.00 in
14:58 69.9 °F 43.8 °F 30.03 in WNW 6.0 mph 13.0 mph 39% 0.00 in
15:01 70.2 °F 43.4 °F 30.03 in NW 4.0 mph 8.0 mph 38% 0.00 in
15:06 70.6 °F 45.1 °F 30.03 in NNW 5.0 mph 9.0 mph 40% 0.00 in
15:11 71.0 °F 46.1 °F 30.03 in NW 3.0 mph 8.0 mph 41% 0.00 in
15:16 71.2 °F 45.0 °F 30.03 in NW 6.0 mph 11.0 mph 39% 0.00 in
15:21 70.7 °F 44.5 °F 30.03 in WNW 8.0 mph 11.0 mph 39% 0.00 in
15:26 69.7 °F 44.3 °F 30.03 in WNW 7.0 mph 10.0 mph 40% 0.00 in
15:32 69.3 °F 46.5 °F 30.03 in NW 6.0 mph 9.0 mph 44% 0.00 in
15:37 69.4 °F 46.0 °F 30.03 in NW 10.0 mph 10.0 mph 43% 0.00 in
15:42 69.3 °F 46.5 °F 30.02 in NW 8.0 mph 10.0 mph 44% 0.00 in
15:47 68.8 °F 44.8 °F 30.02 in WNW 8.0 mph 13.0 mph 42% 0.00 in
15:52 68.7 °F 43.4 °F 30.03 in NNW 4.0 mph 13.0 mph 40% 0.00 in
15:57 68.8 °F 44.2 °F 30.02 in NNW 6.0 mph 10.0 mph 41% 0.00 in
16:02 68.7 °F 43.4 °F 30.02 in WNW 9.0 mph 12.0 mph 40% 0.00 in
16:07 68.7 °F 45.3 °F 30.02 in WNW 9.0 mph 9.0 mph 43% 0.00 in
16:12 68.8 °F 44.8 °F 30.02 in NW 5.0 mph 9.0 mph 42% 0.00 in
16:17 68.5 °F 45.1 °F 30.02 in NW 12.0 mph 12.0 mph 43% 0.00 in
16:22 68.7 °F 44.7 °F 30.02 in NW 6.0 mph 11.0 mph 42% 0.00 in
16:27 69.4 °F 43.4 °F 30.02 in NW 13.0 mph 14.0 mph 39% 0.00 in
16:33 69.6 °F 44.2 °F 30.02 in North 10.0 mph 10.0 mph 40% 0.00 in
16:38 69.3 °F 41.2 °F 30.02 in NW 6.0 mph 12.0 mph 36% 0.00 in
16:43 68.6 °F 42.0 °F 30.01 in WNW 8.0 mph 11.0 mph 38% 0.00 in
16:48 68.3 °F 41.7 °F 30.01 in NW 5.0 mph 9.0 mph 38% 0.00 in
16:53 68.8 °F 40.1 °F 30.01 in WNW 6.0 mph 13.0 mph 35% 0.00 in
16:58 69.2 °F 40.4 °F 30.01 in NW 11.0 mph 12.0 mph 35% 0.00 in
17:03 69.0 °F 41.0 °F 30.01 in NNW 7.0 mph 13.0 mph 36% 0.00 in
17:08 68.9 °F 38.6 °F 30.01 in NW 9.0 mph 11.0 mph 33% 0.00 in
17:13 68.7 °F 38.5 °F 30.00 in WNW 12.0 mph 13.0 mph 33% 0.00 in
17:18 68.4 °F 39.0 °F 30.00 in NNW 4.0 mph 12.0 mph 34% 0.00 in
17:23 68.6 °F 40.6 °F 30.00 in NNW 10.0 mph 10.0 mph 36% 0.00 in
17:29 68.8 °F 39.3 °F 30.00 in NW 6.0 mph 13.0 mph 34% 0.00 in
17:34 68.8 °F 37.8 °F 30.00 in NW 9.0 mph 11.0 mph 32% 0.00 in
17:36 68.6 °F 36.0 °F 30.00 in WNW 4.0 mph 12.0 mph 30% 0.00 in
17:41 68.5 °F 39.0 °F 30.00 in West 6.0 mph 9.0 mph 34% 0.00 in
17:47 68.5 °F 39.0 °F 30.01 in West 6.0 mph 11.0 mph 34% 0.00 in
17:52 68.5 °F 38.3 °F 30.01 in WNW 8.0 mph 10.0 mph 33% 0.00 in
17:57 68.3 °F 37.3 °F 30.01 in WNW 5.0 mph 19.0 mph 32% 0.00 in
18:02 68.4 °F 38.2 °F 30.01 in NW 14.0 mph 14.0 mph 33% 0.00 in
18:07 68.2 °F 41.0 °F 30.01 in NW 7.0 mph 12.0 mph 37% 0.00 in
18:12 68.3 °F 41.7 °F 30.00 in NW 7.0 mph 10.0 mph 38% 0.00 in
18:18 68.5 °F 39.8 °F 30.01 in WNW 8.0 mph 9.0 mph 35% 0.00 in
18:23 68.3 °F 39.6 °F 30.01 in NNW 6.0 mph 9.0 mph 35% 0.00 in
18:28 67.4 °F 38.1 °F 30.01 in NW 6.0 mph 11.0 mph 34% 0.00 in
18:34 67.2 °F 38.7 °F 30.01 in NNW 4.0 mph 8.0 mph 35% 0.00 in
18:39 67.1 °F 40.0 °F 30.01 in NW 5.0 mph 9.0 mph 37% 0.00 in
18:44 66.9 °F 38.4 °F 30.01 in NW 5.0 mph 8.0 mph 35% 0.00 in
18:48 66.9 °F 39.8 °F 30.01 in WNW 3.0 mph 6.0 mph 37% 0.00 in
18:53 66.8 °F 39.7 °F 30.01 in WNW 5.0 mph 6.0 mph 37% 0.00 in
18:58 66.7 °F 39.6 °F 30.01 in NW 5.0 mph 6.0 mph 37% 0.00 in
19:03 66.6 °F 39.5 °F 30.01 in NW 3.0 mph 4.0 mph 37% 0.00 in
19:08 66.5 °F 40.1 °F 30.01 in NW 5.0 mph 6.0 mph 38% 0.00 in
19:13 66.2 °F 39.2 °F 30.01 in WNW 2.0 mph 6.0 mph 37% 0.00 in
19:18 65.9 °F 37.5 °F 30.01 in WNW 7.0 mph 10.0 mph 35% 0.00 in
19:23 65.8 °F 38.1 °F 30.01 in NW 2.0 mph 7.0 mph 36% 0.00 in
19:28 65.5 °F 37.2 °F 30.01 in NNW 4.0 mph 9.0 mph 35% 0.00 in
19:33 65.2 °F 37.6 °F 30.01 in WNW 6.0 mph 9.0 mph 36% 0.00 in
19:37 64.9 °F 37.3 °F 30.01 in WNW 6.0 mph 7.0 mph 36% 0.00 in
19:42 64.4 °F 36.9 °F 30.01 in WNW 4.0 mph 9.0 mph 36% 0.00 in
19:47 64.0 °F 36.5 °F 30.01 in NW 6.0 mph 7.0 mph 36% 0.00 in
19:53 63.7 °F 37.0 °F 30.01 in NW 4.0 mph 7.0 mph 37% 0.00 in
19:58 63.4 °F 36.7 °F 30.01 in NW 3.0 mph 6.0 mph 37% 0.00 in
20:03 62.8 °F 36.8 °F 30.01 in WNW 3.0 mph 4.0 mph 38% 0.00 in
20:08 62.3 °F 37.0 °F 30.01 in NW 1.0 mph 4.0 mph 39% 0.00 in
20:13 61.7 °F 37.2 °F 30.01 in WNW 1.0 mph 2.0 mph 40% 0.00 in
20:18 61.3 °F 37.4 °F 30.01 in WNW 1.0 mph 2.0 mph 41% 0.00 in
20:23 60.8 °F 37.6 °F 30.02 in WNW 1.0 mph 1.0 mph 42% 0.00 in
20:28 60.4 °F 37.8 °F 30.02 in WNW 1.0 mph 3.0 mph 43% 0.00 in
20:33 60.0 °F 37.5 °F 30.02 in WNW 1.0 mph 2.0 mph 43% 0.00 in
20:38 59.8 °F 37.3 °F 30.02 in WNW 2.0 mph 4.0 mph 43% 0.00 in
20:44 59.6 °F 37.7 °F 30.02 in WNW 1.0 mph 2.0 mph 44% 0.00 in
20:49 59.1 °F 37.8 °F 30.02 in WNW 1.0 mph 2.0 mph 45% 0.00 in
20:54 59.0 °F 37.7 °F 30.02 in WNW 1.0 mph 2.0 mph 45% 0.00 in
20:59 58.8 °F 38.1 °F 30.02 in WNW 1.0 mph 2.0 mph 46% 0.00 in
21:04 58.7 °F 38.0 °F 30.03 in WNW 1.0 mph 2.0 mph 46% 0.00 in
21:09 58.3 °F 38.2 °F 30.03 in NW 2.0 mph 2.0 mph 47% 0.00 in
21:14 58.2 °F 38.1 °F 30.03 in NW 1.0 mph 3.0 mph 47% 0.00 in
21:19 57.9 °F 38.3 °F 30.03 in NW 1.0 mph 2.0 mph 48% 0.00 in
21:24 57.3 °F 38.3 °F 30.03 in NW 1.0 mph 1.0 mph 49% 0.00 in
21:29 57.0 °F 38.6 °F 30.03 in NW 2.0 mph 2.0 mph 50% 0.00 in
21:34 56.9 °F 38.5 °F 30.04 in NW 2.0 mph 2.0 mph 50% 0.00 in
21:39 57.0 °F 38.6 °F 30.03 in WNW 2.0 mph 4.0 mph 50% 0.00 in
21:44 57.1 °F 38.1 °F 30.04 in NW 5.0 mph 8.0 mph 49% 0.00 in
21:49 57.5 °F 37.5 °F 30.04 in WNW 2.0 mph 9.0 mph 47% 0.00 in
21:54 57.5 °F 38.0 °F 30.04 in WNW 3.0 mph 6.0 mph 48% 0.00 in
21:59 57.3 °F 37.8 °F 30.04 in WNW 3.0 mph 6.0 mph 48% 0.00 in
22:04 57.2 °F 37.2 °F 30.04 in WNW 3.0 mph 6.0 mph 47% 0.00 in
22:09 56.9 °F 36.9 °F 30.04 in WNW 5.0 mph 5.0 mph 47% 0.00 in
22:14 56.8 °F 36.3 °F 30.04 in WNW 4.0 mph 6.0 mph 46% 0.00 in
22:19 56.6 °F 35.5 °F 30.04 in WNW 3.0 mph 7.0 mph 45% 0.00 in
22:24 56.6 °F 35.0 °F 30.04 in WNW 3.0 mph 5.0 mph 44% 0.00 in
22:30 56.3 °F 34.7 °F 30.04 in NW 3.0 mph 5.0 mph 44% 0.00 in
22:35 56.1 °F 34.5 °F 30.04 in WNW 3.0 mph 4.0 mph 44% 0.00 in
22:40 55.9 °F 34.3 °F 30.05 in WNW 3.0 mph 5.0 mph 44% 0.00 in
22:45 55.8 °F 34.2 °F 30.05 in NW 2.0 mph 4.0 mph 44% 0.00 in
22:50 55.4 °F 34.4 °F 30.05 in NW 2.0 mph 4.0 mph 45% 0.00 in
22:51 55.4 °F 34.4 °F 30.05 in NW 2.0 mph 3.0 mph 45% 0.00 in
22:56 55.1 °F 34.2 °F 30.05 in NW 3.0 mph 4.0 mph 45% 0.00 in
23:01 54.8 °F 34.4 °F 30.05 in NNW 5.0 mph 8.0 mph 46% 0.00 in
23:03 54.8 °F 34.4 °F 30.05 in NNW 3.0 mph 5.0 mph 46% 0.00 in
23:08 54.5 °F 34.7 °F 30.05 in NNW 3.0 mph 4.0 mph 47% 0.00 in
23:14 54.4 °F 34.6 °F 30.05 in NNW 3.0 mph 7.0 mph 47% 0.00 in
23:19 54.3 °F 34.5 °F 30.05 in North 3.0 mph 6.0 mph 47% 0.00 in
23:24 54.1 °F 34.9 °F 30.05 in North 2.0 mph 4.0 mph 48% 0.00 in
23:29 53.7 °F 34.5 °F 30.05 in North 3.0 mph 4.0 mph 48% 0.00 in
23:34 53.5 °F 34.8 °F 30.05 in NNW 2.0 mph 4.0 mph 49% 0.00 in
23:35 53.5 °F 34.8 °F 30.05 in NNW 4.0 mph 4.0 mph 49% 0.00 in
23:40 53.2 °F 35.1 °F 30.06 in NNW 3.0 mph 6.0 mph 50% 0.00 in
23:45 52.9 °F 35.3 °F 30.06 in NNW 3.0 mph 4.0 mph 51% 0.00 in
23:46 52.9 °F 35.3 °F 30.06 in NNW 3.0 mph 4.0 mph 51% 0.00 in
23:51 52.6 °F 35.5 °F 30.06 in NW 2.0 mph 5.0 mph 52% 0.00 in
23:56 52.4 °F 35.3 °F 30.06 in North 5.0 mph 5.0 mph 52% 0.00 in
Compliments of Weather Underground